createdAt,value
2023-05-22T00:00:32.602Z,1001.58
2023-05-22T00:01:32.570Z,1001.61
2023-05-22T00:02:32.645Z,1001.59
2023-05-22T00:03:32.560Z,1001.60
2023-05-22T00:04:32.527Z,1001.61
2023-05-22T00:05:32.645Z,1001.64
2023-05-22T00:06:32.524Z,1001.61
2023-05-22T00:07:32.477Z,1001.68
2023-05-22T00:08:32.495Z,1001.70
2023-05-22T00:09:32.452Z,1001.63
2023-05-22T00:10:32.450Z,1001.68
2023-05-22T00:11:32.474Z,1001.64
2023-05-22T00:12:32.409Z,1001.68
2023-05-22T00:13:32.398Z,1001.61
2023-05-22T00:14:32.394Z,1001.58
2023-05-22T00:15:32.387Z,1001.58
2023-05-22T00:16:32.402Z,1001.56
2023-05-22T00:17:32.423Z,1001.54
2023-05-22T00:18:32.353Z,1001.53
2023-05-22T00:19:32.403Z,1001.54
2023-05-22T00:20:32.318Z,1001.52
2023-05-22T00:21:32.288Z,1001.46
2023-05-22T00:22:32.285Z,1001.50
2023-05-22T00:23:32.328Z,1001.50
2023-05-22T00:24:32.249Z,1001.51
2023-05-22T00:25:32.250Z,1001.50
2023-05-22T00:26:32.217Z,1001.43
2023-05-22T00:27:32.264Z,1001.45
2023-05-22T00:28:32.269Z,1001.44
2023-05-22T00:29:32.211Z,1001.44
2023-05-22T00:30:32.178Z,1001.35
2023-05-22T00:31:32.148Z,1001.35
2023-05-22T00:32:32.216Z,1001.31
2023-05-22T00:33:32.123Z,1001.39
2023-05-22T00:34:32.222Z,1001.39
2023-05-22T00:35:32.117Z,1001.34
2023-05-22T00:36:32.093Z,1001.32
2023-05-22T00:37:32.106Z,1001.29
2023-05-22T00:38:32.083Z,1001.32
2023-05-22T00:39:32.047Z,1001.29
2023-05-22T00:40:32.051Z,1001.35
2023-05-22T00:41:32.049Z,1001.30
2023-05-22T00:42:32.009Z,1001.29
2023-05-22T00:43:32.027Z,1001.26
2023-05-22T00:44:31.994Z,1001.27
2023-05-22T00:45:31.970Z,1001.32
2023-05-22T00:46:31.984Z,1001.27
2023-05-22T00:47:32.018Z,1001.32
2023-05-22T00:48:31.939Z,1001.28
2023-05-22T00:49:31.955Z,1001.36
2023-05-22T00:50:31.930Z,1001.26
2023-05-22T00:51:31.882Z,1001.23
2023-05-22T00:52:31.868Z,1001.32
2023-05-22T00:53:31.863Z,1001.24
2023-05-22T00:54:31.949Z,1001.40
2023-05-22T00:55:31.838Z,1001.34
2023-05-22T00:56:31.813Z,1001.33
2023-05-22T00:57:31.816Z,1001.38
2023-05-22T00:58:31.796Z,1001.34
2023-05-22T00:59:31.796Z,1001.29
2023-05-22T01:00:31.793Z,1001.34
2023-05-22T01:01:31.806Z,1001.23
2023-05-22T01:02:31.860Z,1001.31
2023-05-22T01:03:31.774Z,1001.32
2023-05-22T01:04:31.733Z,1001.34
2023-05-22T01:05:31.706Z,1001.29
2023-05-22T01:06:31.722Z,1001.28
2023-05-22T01:07:31.681Z,1001.30
2023-05-22T01:08:31.660Z,1001.30
2023-05-22T01:09:31.661Z,1001.33
2023-05-22T01:10:31.627Z,1001.25
2023-05-22T01:11:31.656Z,1001.35
2023-05-22T01:12:31.597Z,1001.27
2023-05-22T01:13:31.610Z,1001.27
2023-05-22T01:14:31.575Z,1001.19
2023-05-22T01:15:31.586Z,1001.24
2023-05-22T01:16:31.643Z,1001.24
2023-05-22T01:17:31.554Z,1001.26
2023-05-22T01:18:31.520Z,1001.27
2023-05-22T01:19:31.563Z,1001.26
2023-05-22T01:20:31.514Z,1001.26
2023-05-22T01:21:31.513Z,1001.25
2023-05-22T01:22:31.473Z,1001.23
2023-05-22T01:23:31.454Z,1001.33
2023-05-22T01:24:31.457Z,1001.28
2023-05-22T01:25:31.426Z,1001.27
2023-05-22T01:26:31.412Z,1001.28
2023-05-22T01:27:31.505Z,1001.29
2023-05-22T01:28:31.383Z,1001.32
2023-05-22T01:29:31.367Z,1001.27
2023-05-22T01:30:31.371Z,1001.30
2023-05-22T01:31:31.372Z,1001.30
2023-05-22T01:32:31.458Z,1001.30
2023-05-22T01:33:31.580Z,1001.29
2023-05-22T01:34:31.306Z,1001.28
2023-05-22T01:35:31.295Z,1001.35
2023-05-22T01:36:31.277Z,1001.30
2023-05-22T01:37:31.287Z,1001.33
2023-05-22T01:38:31.264Z,1001.31
2023-05-22T01:39:31.240Z,1001.34
2023-05-22T01:40:31.225Z,1001.32
2023-05-22T01:41:31.222Z,1001.31
2023-05-22T01:42:31.199Z,1001.28
2023-05-22T01:43:31.220Z,1001.27
2023-05-22T01:44:31.171Z,1001.27
2023-05-22T01:45:31.254Z,1001.26
2023-05-22T01:46:31.158Z,1001.28
2023-05-22T01:47:31.203Z,1001.26
2023-05-22T01:48:31.123Z,1001.25
2023-05-22T01:49:31.100Z,1001.25
2023-05-22T01:50:31.091Z,1001.34
2023-05-22T01:51:31.281Z,1001.29
2023-05-22T01:52:31.053Z,1001.33
2023-05-22T01:53:31.049Z,1001.32
2023-05-22T01:54:31.052Z,1001.28
2023-05-22T01:55:31.022Z,1001.28
2023-05-22T01:56:31.039Z,1001.26
2023-05-22T01:57:31.006Z,1001.22
2023-05-22T01:58:30.991Z,1001.22
2023-05-22T01:59:30.995Z,1001.19
2023-05-22T02:00:30.967Z,1001.20
2023-05-22T02:01:31.015Z,1001.15
2023-05-22T02:02:31.055Z,1001.17
2023-05-22T02:03:30.947Z,1001.25
2023-05-22T02:04:30.917Z,1001.18
2023-05-22T02:05:30.891Z,1001.25
2023-05-22T02:06:30.899Z,1001.27
2023-05-22T02:07:30.863Z,1001.17
2023-05-22T02:08:30.838Z,1001.25
2023-05-22T02:09:30.819Z,1001.28
2023-05-22T02:10:30.859Z,1001.23
2023-05-22T02:11:30.801Z,1001.28
2023-05-22T02:12:30.787Z,1001.28
2023-05-22T02:13:30.782Z,1001.26
2023-05-22T02:14:30.783Z,1001.28
2023-05-22T02:15:30.816Z,1001.22
2023-05-22T02:16:30.763Z,1001.24
2023-05-22T02:17:30.739Z,1001.24
2023-05-22T02:18:30.718Z,1001.20
2023-05-22T02:19:30.771Z,1001.20
2023-05-22T02:20:30.673Z,1001.20
2023-05-22T02:21:30.676Z,1001.21
2023-05-22T02:22:30.665Z,1001.19
2023-05-22T02:23:30.632Z,1001.11
2023-05-22T02:24:30.635Z,1001.11
2023-05-22T02:25:30.604Z,1001.13
2023-05-22T02:26:30.618Z,1001.15
2023-05-22T02:27:30.600Z,1001.16
2023-05-22T02:28:30.602Z,1001.12
2023-05-22T02:29:30.549Z,1001.11
2023-05-22T02:30:30.529Z,1001.10
2023-05-22T02:31:30.558Z,1001.12
2023-05-22T02:32:30.573Z,1001.07
2023-05-22T02:33:30.537Z,1001.14
2023-05-22T02:34:30.492Z,1001.07
2023-05-22T02:35:30.479Z,1001.10
2023-05-22T02:36:30.467Z,1001.07
2023-05-22T02:37:30.456Z,1001.04
2023-05-22T02:38:30.454Z,1001.07
2023-05-22T02:39:30.469Z,1001.05
2023-05-22T02:40:30.398Z,1001.02
2023-05-22T02:41:30.429Z,1001.06
2023-05-22T02:42:30.419Z,1001.03
2023-05-22T02:43:30.349Z,1001.02
2023-05-22T02:44:30.343Z,1000.99
2023-05-22T02:45:30.329Z,1000.93
2023-05-22T02:46:30.387Z,1000.91
2023-05-22T02:47:30.499Z,1000.96
2023-05-22T02:48:30.300Z,1000.93
2023-05-22T02:49:30.295Z,1000.88
2023-05-22T02:50:30.262Z,1000.85
2023-05-22T02:51:30.257Z,1000.92
2023-05-22T02:52:30.281Z,1000.89
2023-05-22T02:53:30.271Z,1000.77
2023-05-22T02:54:30.216Z,1000.82
2023-05-22T02:55:30.186Z,1000.83
2023-05-22T02:56:30.184Z,1000.75
2023-05-22T02:57:30.166Z,1000.80
2023-05-22T02:58:30.153Z,1000.76
2023-05-22T02:59:30.315Z,1000.80
2023-05-22T03:00:30.149Z,1000.76
2023-05-22T03:01:30.163Z,1000.71
2023-05-22T03:02:30.258Z,1000.65
2023-05-22T03:03:30.166Z,1000.62
2023-05-22T03:04:30.083Z,1000.67
2023-05-22T03:05:30.057Z,1000.59
2023-05-22T03:06:30.049Z,1000.70
2023-05-22T03:07:30.070Z,1000.68
2023-05-22T03:08:30.033Z,1000.62
2023-05-22T03:09:30.010Z,1000.65
2023-05-22T03:10:30.017Z,1000.65
2023-05-22T03:11:30.027Z,1000.66
2023-05-22T03:12:29.983Z,1000.63
2023-05-22T03:13:29.984Z,1000.66
2023-05-22T03:14:29.941Z,1000.69
2023-05-22T03:15:29.941Z,1000.69
2023-05-22T03:16:29.984Z,1000.67
2023-05-22T03:17:30.009Z,1000.70
2023-05-22T03:18:29.928Z,1000.73
2023-05-22T03:19:29.917Z,1000.74
2023-05-22T03:20:29.882Z,1000.75
2023-05-22T03:21:29.848Z,1000.70
2023-05-22T03:22:29.831Z,1000.69
2023-05-22T03:23:29.829Z,1000.71
2023-05-22T03:24:29.999Z,1000.64
2023-05-22T03:25:29.789Z,1000.70
2023-05-22T03:26:29.788Z,1000.69
2023-05-22T03:27:29.778Z,1000.61
2023-05-22T03:28:29.769Z,1000.67
2023-05-22T03:29:29.820Z,1000.69
2023-05-22T03:30:29.735Z,1000.67
2023-05-22T03:31:29.719Z,1000.66
2023-05-22T03:32:29.747Z,1000.63
2023-05-22T03:33:29.726Z,1000.64
2023-05-22T03:34:29.691Z,1000.70
2023-05-22T03:35:29.700Z,1000.66
2023-05-22T03:36:31.130Z,1000.61
2023-05-22T03:37:29.646Z,1000.64
2023-05-22T03:38:29.651Z,1000.61
2023-05-22T03:39:29.666Z,1000.64
2023-05-22T03:40:29.589Z,1000.66
2023-05-22T03:41:29.607Z,1000.70
2023-05-22T03:42:29.584Z,1000.62
2023-05-22T03:43:29.584Z,1000.64
2023-05-22T03:44:29.567Z,1000.64
2023-05-22T03:45:29.627Z,1000.65
2023-05-22T03:46:29.764Z,1000.71
2023-05-22T03:47:29.546Z,1000.65
2023-05-22T03:48:29.538Z,1000.63
2023-05-22T03:49:29.517Z,1000.63
2023-05-22T03:50:29.539Z,1000.68
2023-05-22T03:51:29.458Z,1000.63
2023-05-22T03:52:29.467Z,1000.61
2023-05-22T03:53:29.435Z,1000.60
2023-05-22T03:54:29.418Z,1000.62
2023-05-22T03:55:29.427Z,1000.61
2023-05-22T03:56:29.406Z,1000.60
2023-05-22T03:57:29.378Z,1000.58
2023-05-22T03:58:29.364Z,1000.62
2023-05-22T03:59:29.354Z,1000.60
2023-05-22T04:00:29.561Z,1000.61
2023-05-22T04:01:29.337Z,1000.60
2023-05-22T04:02:29.376Z,1000.63
2023-05-22T04:03:29.383Z,1000.54
2023-05-22T04:04:29.277Z,1000.56
2023-05-22T04:05:29.377Z,1000.62
2023-05-22T04:06:29.290Z,1000.60
2023-05-22T04:07:29.250Z,1000.65
2023-05-22T04:08:29.302Z,1000.62
2023-05-22T04:09:29.212Z,1000.65
2023-05-22T04:10:29.203Z,1000.63
2023-05-22T04:11:29.236Z,1000.64
2023-05-22T04:12:29.187Z,1000.61
2023-05-22T04:13:29.163Z,1000.58
2023-05-22T04:14:29.157Z,1000.58
2023-05-22T04:15:29.148Z,1000.60
2023-05-22T04:16:29.238Z,1000.61
2023-05-22T04:17:29.135Z,1000.64
2023-05-22T04:18:29.110Z,1000.63
2023-05-22T04:19:29.114Z,1000.61
2023-05-22T04:20:29.102Z,1000.57
2023-05-22T04:21:29.088Z,1000.56
2023-05-22T04:22:29.065Z,1000.64
2023-05-22T04:23:29.030Z,1000.61
2023-05-22T04:24:29.016Z,1000.62
2023-05-22T04:25:28.996Z,1000.60
2023-05-22T04:26:29.025Z,1000.65
2023-05-22T04:27:29.304Z,1000.55
2023-05-22T04:28:28.961Z,1000.60
2023-05-22T04:29:28.946Z,1000.67
2023-05-22T04:30:28.947Z,1000.61
2023-05-22T04:31:28.967Z,1000.71
2023-05-22T04:32:28.973Z,1000.68
2023-05-22T04:33:28.974Z,1000.68
2023-05-22T04:34:28.902Z,1000.70
2023-05-22T04:35:28.871Z,1000.71
2023-05-22T04:36:29.601Z,1000.71
2023-05-22T04:37:28.868Z,1000.70
2023-05-22T04:38:28.819Z,1000.67
2023-05-22T04:39:28.843Z,1000.70
2023-05-22T04:40:28.802Z,1000.68
2023-05-22T04:41:28.787Z,1000.70
2023-05-22T04:42:28.765Z,1000.68
2023-05-22T04:43:28.747Z,1000.68
2023-05-22T04:44:28.757Z,1000.65
2023-05-22T04:45:29.024Z,1000.68
2023-05-22T04:46:28.784Z,1000.66
2023-05-22T04:47:28.719Z,1000.67
2023-05-22T04:48:28.694Z,1000.65
2023-05-22T04:49:28.708Z,1000.68
2023-05-22T04:50:28.651Z,1000.68
2023-05-22T04:51:28.665Z,1000.70
2023-05-22T04:52:28.630Z,1000.65
2023-05-22T04:53:28.620Z,1000.68
2023-05-22T04:54:28.604Z,1000.67
2023-05-22T04:55:29.334Z,1000.69
2023-05-22T04:56:36.411Z,1000.68
2023-05-22T04:57:29.594Z,1000.67
2023-05-22T04:58:28.542Z,1000.64
2023-05-22T04:59:28.534Z,1000.65
2023-05-22T05:00:28.524Z,1000.65
2023-05-22T05:01:30.984Z,1000.66
2023-05-22T05:02:28.542Z,1000.65
2023-05-22T05:03:28.639Z,1000.66
2023-05-22T05:04:28.461Z,1000.64
2023-05-22T05:05:28.453Z,1000.61
2023-05-22T05:06:28.448Z,1000.68
2023-05-22T05:07:28.421Z,1000.68
2023-05-22T05:08:28.403Z,1000.61
2023-05-22T05:09:28.674Z,1000.60
2023-05-22T05:10:28.387Z,1000.59
2023-05-22T05:11:28.374Z,1000.58
2023-05-22T05:12:28.360Z,1000.59
2023-05-22T05:13:28.340Z,1000.61
2023-05-22T05:14:28.365Z,1000.69
2023-05-22T05:15:28.353Z,1000.59
2023-05-22T05:16:28.338Z,1000.64
2023-05-22T05:17:28.349Z,1000.56
2023-05-22T05:18:28.322Z,1000.58
2023-05-22T05:19:28.410Z,1000.52
2023-05-22T05:20:28.275Z,1000.60
2023-05-22T05:21:28.319Z,1000.57
2023-05-22T05:22:28.273Z,1000.58
2023-05-22T05:23:28.338Z,1000.61
2023-05-22T05:24:28.285Z,1000.64
2023-05-22T05:25:28.187Z,1000.63
2023-05-22T05:26:28.164Z,1000.64
2023-05-22T05:27:28.303Z,1000.65
2023-05-22T05:28:28.146Z,1000.67
2023-05-22T05:29:28.150Z,1000.65
2023-05-22T05:30:28.368Z,1000.65
2023-05-22T05:31:28.134Z,1000.72
2023-05-22T05:32:28.160Z,1000.73
2023-05-22T05:33:28.080Z,1000.76
2023-05-22T05:34:28.102Z,1000.79
2023-05-22T05:35:28.082Z,1000.72
2023-05-22T05:36:28.027Z,1000.75
2023-05-22T05:37:28.010Z,1000.77
2023-05-22T05:38:28.000Z,1000.80
2023-05-22T05:39:27.989Z,1000.85
2023-05-22T05:40:27.979Z,1000.85
2023-05-22T05:41:27.993Z,1000.82
2023-05-22T05:42:27.943Z,1000.91
2023-05-22T05:43:27.936Z,1000.87
2023-05-22T05:44:27.953Z,1000.86
2023-05-22T05:45:27.934Z,1000.92
2023-05-22T05:46:27.959Z,1000.88
2023-05-22T05:47:27.979Z,1000.91
2023-05-22T05:48:27.898Z,1000.94
2023-05-22T05:49:27.856Z,1000.97
2023-05-22T05:50:27.859Z,1000.88
2023-05-22T05:51:27.817Z,1000.95
2023-05-22T05:52:27.834Z,1000.96
2023-05-22T05:53:27.803Z,1000.89
2023-05-22T05:54:28.568Z,1000.84
2023-05-22T05:55:27.824Z,1000.90
2023-05-22T05:56:27.793Z,1000.87
2023-05-22T05:57:28.573Z,1000.85
2023-05-22T05:58:27.740Z,1000.83
2023-05-22T05:59:27.735Z,1000.89
2023-05-22T06:00:27.699Z,1000.83
2023-05-22T06:01:27.691Z,1000.83
2023-05-22T06:02:27.952Z,1000.86
2023-05-22T06:03:27.839Z,1000.88
2023-05-22T06:04:27.686Z,1000.88
2023-05-22T06:05:27.740Z,1000.93
2023-05-22T06:06:27.647Z,1000.87
2023-05-22T06:07:27.613Z,1000.91
2023-05-22T06:08:27.619Z,1000.88
2023-05-22T06:09:27.603Z,1000.91
2023-05-22T06:10:27.582Z,1000.95
2023-05-22T06:11:27.570Z,1000.95
2023-05-22T06:12:27.592Z,1000.98
2023-05-22T06:13:28.318Z,1000.89
2023-05-22T06:14:27.531Z,1000.92
2023-05-22T06:15:27.527Z,1000.90
2023-05-22T06:16:27.532Z,1000.92
2023-05-22T06:17:27.562Z,1000.93
2023-05-22T06:18:27.499Z,1000.94
2023-05-22T06:19:27.540Z,1000.92
2023-05-22T06:20:27.443Z,1000.92
2023-05-22T06:21:27.427Z,1000.94
2023-05-22T06:22:27.407Z,1000.94
2023-05-22T06:23:27.400Z,1000.99
2023-05-22T06:24:27.420Z,1000.88
2023-05-22T06:25:28.334Z,1000.90
2023-05-22T06:26:27.394Z,1000.92
2023-05-22T06:27:27.371Z,1000.88
2023-05-22T06:28:27.346Z,1000.97
2023-05-22T06:29:27.433Z,1000.95
2023-05-22T06:30:39.540Z,1000.94
2023-05-22T06:31:28.293Z,1000.99
2023-05-22T06:32:27.403Z,1000.99
2023-05-22T06:33:28.141Z,1001.03
2023-05-22T06:34:27.374Z,1000.99
2023-05-22T06:35:27.437Z,1001.01
2023-05-22T06:36:27.267Z,1001.04
2023-05-22T06:37:27.238Z,1001.08
2023-05-22T06:38:27.227Z,1001.06
2023-05-22T06:39:27.533Z,1001.05
2023-05-22T06:40:27.207Z,1001.08
2023-05-22T06:41:27.181Z,1001.08
2023-05-22T06:42:27.226Z,1001.06
2023-05-22T06:43:27.150Z,1001.06
2023-05-22T06:44:27.149Z,1001.02
2023-05-22T06:45:27.118Z,1001.04
2023-05-22T06:46:27.128Z,1001.02
2023-05-22T06:47:27.162Z,1001.08
2023-05-22T06:48:27.097Z,1001.08
2023-05-22T06:49:27.071Z,1001.15
2023-05-22T06:50:27.064Z,1001.08
2023-05-22T06:51:27.051Z,1001.09
2023-05-22T06:52:27.759Z,1001.07
2023-05-22T06:53:27.039Z,1001.08
2023-05-22T06:54:27.003Z,1001.07
2023-05-22T06:55:26.975Z,1001.11
2023-05-22T06:56:26.972Z,1001.07
2023-05-22T06:57:26.962Z,1001.11
2023-05-22T06:58:26.961Z,1001.03
2023-05-22T06:59:26.977Z,1000.99
2023-05-22T07:00:26.945Z,1001.11
2023-05-22T07:01:33.212Z,1001.07
2023-05-22T07:02:26.979Z,1001.07
2023-05-22T07:03:26.887Z,1001.06
2023-05-22T07:04:27.080Z,1001.08
2023-05-22T07:05:26.889Z,1001.12
2023-05-22T07:06:26.836Z,1001.08
2023-05-22T07:07:26.824Z,1001.11
2023-05-22T07:08:28.414Z,1001.13
2023-05-22T07:09:26.810Z,1001.12
2023-05-22T07:10:26.883Z,1001.12
2023-05-22T07:11:26.789Z,1001.14
2023-05-22T07:12:26.765Z,1001.14
2023-05-22T07:13:26.745Z,1001.14
2023-05-22T07:14:26.740Z,1001.16
2023-05-22T07:15:26.759Z,1001.11
2023-05-22T07:16:26.737Z,1001.11
2023-05-22T07:17:26.727Z,1001.12
2023-05-22T07:18:26.714Z,1001.17
2023-05-22T07:19:26.695Z,1001.12
2023-05-22T07:20:26.656Z,1001.14
2023-05-22T07:21:26.853Z,1001.15
2023-05-22T07:22:26.631Z,1001.12
2023-05-22T07:23:26.609Z,1001.10
2023-05-22T07:24:26.646Z,1001.18
2023-05-22T07:25:26.587Z,1001.21
2023-05-22T07:26:26.671Z,1001.16
2023-05-22T07:27:26.584Z,1001.17
2023-05-22T07:28:26.553Z,1001.19
2023-05-22T07:29:26.530Z,1001.09
2023-05-22T07:30:26.585Z,1001.14
2023-05-22T07:31:26.552Z,1001.17
2023-05-22T07:32:26.731Z,1001.16
2023-05-22T07:33:26.512Z,1001.14
2023-05-22T07:34:27.851Z,1001.16
2023-05-22T07:35:26.476Z,1001.19
2023-05-22T07:36:26.455Z,1001.22
2023-05-22T07:37:26.470Z,1001.18
2023-05-22T07:38:26.411Z,1001.20
2023-05-22T07:39:26.412Z,1001.21
2023-05-22T07:40:26.702Z,1001.18
2023-05-22T07:41:26.391Z,1001.12
2023-05-22T07:42:26.370Z,1001.10
2023-05-22T07:43:26.377Z,1001.15
2023-05-22T07:44:26.359Z,1001.20
2023-05-22T07:45:26.428Z,1001.18
2023-05-22T07:46:26.361Z,1001.23
2023-05-22T07:47:26.411Z,1001.21
2023-05-22T07:48:26.358Z,1001.17
2023-05-22T07:49:26.274Z,1001.23
2023-05-22T07:50:26.452Z,1001.23
2023-05-22T07:51:26.243Z,1001.22
2023-05-22T07:52:26.234Z,1001.18
2023-05-22T07:53:26.266Z,1001.21
2023-05-22T07:54:26.235Z,1001.13
2023-05-22T07:55:26.203Z,1001.21
2023-05-22T07:56:26.199Z,1001.19
2023-05-22T07:57:26.171Z,1001.24
2023-05-22T07:58:26.189Z,1001.26
2023-05-22T07:59:26.135Z,1001.22
2023-05-22T08:00:26.160Z,1001.21
2023-05-22T08:01:26.120Z,1001.22
2023-05-22T08:02:26.177Z,1001.28
2023-05-22T08:03:26.216Z,1001.21
2023-05-22T08:04:26.367Z,1001.27
2023-05-22T08:05:26.084Z,1001.25
2023-05-22T08:06:26.063Z,1001.20
2023-05-22T08:07:26.047Z,1001.18
2023-05-22T08:08:26.032Z,1001.19
2023-05-22T08:09:26.018Z,1001.24
2023-05-22T08:10:28.072Z,1001.17
2023-05-22T08:11:25.985Z,1001.10
2023-05-22T08:12:25.972Z,1001.18
2023-05-22T08:13:25.948Z,1001.16
2023-05-22T08:14:25.945Z,1001.19
2023-05-22T08:15:25.926Z,1001.17
2023-05-22T08:16:26.050Z,1001.14
2023-05-22T08:17:26.004Z,1001.09
2023-05-22T08:18:25.884Z,1001.18
2023-05-22T08:19:25.960Z,1001.14
2023-05-22T08:20:25.933Z,1001.13
2023-05-22T08:21:25.852Z,1001.17
2023-05-22T08:22:25.869Z,1001.20
2023-05-22T08:23:25.827Z,1001.18
2023-05-22T08:24:25.882Z,1001.20
2023-05-22T08:25:25.792Z,1001.22
2023-05-22T08:26:25.781Z,1001.22
2023-05-22T08:27:25.787Z,1001.25
2023-05-22T08:28:25.757Z,1001.31
2023-05-22T08:29:25.777Z,1001.24
2023-05-22T08:30:25.802Z,1001.23
2023-05-22T08:31:25.730Z,1001.24
2023-05-22T08:32:25.773Z,1001.30
2023-05-22T08:33:25.738Z,1001.29
2023-05-22T08:34:25.705Z,1001.29
2023-05-22T08:35:25.669Z,1001.26
2023-05-22T08:36:25.650Z,1001.29
2023-05-22T08:37:25.672Z,1001.30
2023-05-22T08:38:25.636Z,1001.24
2023-05-22T08:39:25.641Z,1001.21
2023-05-22T08:40:25.691Z,1001.31
2023-05-22T08:41:25.612Z,1001.27
2023-05-22T08:42:25.583Z,1001.29
2023-05-22T08:43:25.624Z,1001.33
2023-05-22T08:44:25.560Z,1001.34
2023-05-22T08:45:25.535Z,1001.21
2023-05-22T08:46:25.546Z,1001.26
2023-05-22T08:47:25.522Z,1001.24
2023-05-22T08:48:25.528Z,1001.24
2023-05-22T08:49:25.511Z,1001.27
2023-05-22T08:50:25.464Z,1001.29
2023-05-22T08:51:25.496Z,1001.24
2023-05-22T08:52:25.449Z,1001.25
2023-05-22T08:53:25.423Z,1001.25
2023-05-22T08:54:25.457Z,1001.28
2023-05-22T08:55:25.459Z,1001.28
2023-05-22T08:56:27.029Z,1001.24
2023-05-22T08:57:25.417Z,1001.27
2023-05-22T08:58:25.396Z,1001.21
2023-05-22T08:59:25.377Z,1001.31
2023-05-22T09:00:25.350Z,1001.20
2023-05-22T09:01:25.376Z,1001.20
2023-05-22T09:02:25.356Z,1001.22
2023-05-22T09:03:25.418Z,1001.20
2023-05-22T09:04:25.315Z,1001.20
2023-05-22T09:05:25.274Z,1001.20
2023-05-22T09:06:25.287Z,1001.22
2023-05-22T09:07:25.274Z,1001.18
2023-05-22T09:08:25.241Z,1001.21
2023-05-22T09:09:25.225Z,1001.23
2023-05-22T09:10:25.335Z,1001.16
2023-05-22T09:11:25.209Z,1001.20
2023-05-22T09:12:25.252Z,1001.15
2023-05-22T09:13:25.191Z,1001.18
2023-05-22T09:14:25.185Z,1001.18
2023-05-22T09:15:25.531Z,1001.13
2023-05-22T09:16:25.185Z,1001.18
2023-05-22T09:17:25.155Z,1001.20
2023-05-22T09:18:25.145Z,1001.16
2023-05-22T09:19:25.180Z,1001.18
2023-05-22T09:20:25.112Z,1001.22
2023-05-22T09:22:25.075Z,1001.14
2023-05-22T09:23:25.066Z,1001.09
2023-05-22T09:24:25.043Z,1001.17
2023-05-22T09:25:25.046Z,1001.20
2023-05-22T09:26:25.104Z,1001.13
2023-05-22T09:27:24.985Z,1001.17
2023-05-22T09:28:24.996Z,1001.21
2023-05-22T09:29:24.978Z,1001.21
2023-05-22T09:30:24.974Z,1001.23
2023-05-22T09:31:25.005Z,1001.28
2023-05-22T09:32:25.728Z,1001.21
2023-05-22T09:33:24.958Z,1001.15
2023-05-22T09:34:24.902Z,1001.14
2023-05-22T09:35:25.624Z,1001.12
2023-05-22T09:36:24.900Z,1001.17
2023-05-22T09:37:24.895Z,1001.17
2023-05-22T09:38:24.879Z,1001.24
2023-05-22T09:39:24.851Z,1001.22
2023-05-22T09:40:24.819Z,1001.18
2023-05-22T09:41:24.823Z,1001.20
2023-05-22T09:42:24.805Z,1001.26
2023-05-22T09:43:24.849Z,1001.20
2023-05-22T09:44:24.832Z,1001.24
2023-05-22T09:45:24.768Z,1001.23
2023-05-22T09:46:24.757Z,1001.22
2023-05-22T09:47:24.808Z,1001.18
2023-05-22T09:48:24.727Z,1001.24
2023-05-22T09:49:24.749Z,1001.29
2023-05-22T09:50:24.710Z,1001.27
2023-05-22T09:51:25.442Z,1001.24
2023-05-22T09:52:24.670Z,1001.28
2023-05-22T09:53:24.654Z,1001.33
2023-05-22T09:54:24.775Z,1001.22
2023-05-22T09:55:24.708Z,1001.28
2023-05-22T09:56:38.005Z,1001.24
2023-05-22T09:57:25.699Z,1001.21
2023-05-22T09:58:24.621Z,1001.21
2023-05-22T09:59:24.705Z,1001.24
2023-05-22T10:00:24.661Z,1001.29
2023-05-22T10:01:24.630Z,1001.31
2023-05-22T10:02:24.557Z,1001.29
2023-05-22T10:03:24.585Z,1001.22
2023-05-22T10:04:25.341Z,1001.23
2023-05-22T10:05:24.538Z,1001.27
2023-05-22T10:06:24.512Z,1001.18
2023-05-22T10:07:24.493Z,1001.22
2023-05-22T10:08:24.499Z,1001.24
2023-05-22T10:09:24.452Z,1001.26
2023-05-22T10:10:25.426Z,1001.32
2023-05-22T10:11:24.451Z,1001.32
2023-05-22T10:12:24.403Z,1001.27
2023-05-22T10:13:24.384Z,1001.24
2023-05-22T10:14:25.529Z,1001.28
2023-05-22T10:15:24.357Z,1001.26
2023-05-22T10:16:24.456Z,1001.33
2023-05-22T10:17:24.374Z,1001.33
2023-05-22T10:18:24.321Z,1001.40
2023-05-22T10:19:24.351Z,1001.32
2023-05-22T10:20:24.308Z,1001.35
2023-05-22T10:21:24.317Z,1001.38
2023-05-22T10:22:24.267Z,1001.31
2023-05-22T10:23:24.271Z,1001.39
2023-05-22T10:24:24.249Z,1001.35
2023-05-22T10:25:24.227Z,1001.37
2023-05-22T10:26:24.231Z,1001.36
2023-05-22T10:27:24.249Z,1001.35
2023-05-22T10:28:24.195Z,1001.39
2023-05-22T10:29:25.138Z,1001.31
2023-05-22T10:30:24.230Z,1001.32
2023-05-22T10:31:24.149Z,1001.37
2023-05-22T10:32:24.192Z,1001.35
2023-05-22T10:33:24.942Z,1001.33
2023-05-22T10:34:24.106Z,1001.36
2023-05-22T10:35:24.126Z,1001.29
2023-05-22T10:36:24.113Z,1001.31
2023-05-22T10:37:24.068Z,1001.26
2023-05-22T10:38:24.133Z,1001.25
2023-05-22T10:39:24.050Z,1001.26
2023-05-22T10:40:24.030Z,1001.28
2023-05-22T10:41:24.024Z,1001.21
2023-05-22T10:42:24.020Z,1001.30
2023-05-22T10:43:24.031Z,1001.29
2023-05-22T10:44:23.988Z,1001.16
2023-05-22T10:45:23.976Z,1001.22
2023-05-22T10:46:23.988Z,1001.18
2023-05-22T10:47:23.990Z,1001.26
2023-05-22T10:48:23.958Z,1001.20
2023-05-22T10:49:24.686Z,1001.20
2023-05-22T10:50:23.928Z,1001.21
2023-05-22T10:51:23.931Z,1001.17
2023-05-22T10:52:24.638Z,1001.14
2023-05-22T10:53:23.973Z,1001.15
2023-05-22T10:54:23.856Z,1001.17
2023-05-22T10:55:23.896Z,1001.17
2023-05-22T10:56:25.428Z,1001.20
2023-05-22T10:57:23.817Z,1001.14
2023-05-22T10:58:23.828Z,1001.19
2023-05-22T10:59:23.798Z,1001.23
2023-05-22T11:00:23.805Z,1001.14
2023-05-22T11:01:23.800Z,1001.23
2023-05-22T11:02:23.940Z,1001.15
2023-05-22T11:03:23.749Z,1001.14
2023-05-22T11:04:23.823Z,1001.17
2023-05-22T11:05:23.710Z,1001.14
2023-05-22T11:06:23.686Z,1001.14
2023-05-22T11:07:23.710Z,1001.08
2023-05-22T11:08:23.672Z,1001.11
2023-05-22T11:09:23.670Z,1001.16
2023-05-22T11:10:23.689Z,1001.11
2023-05-22T11:11:23.647Z,1001.18
2023-05-22T11:12:23.617Z,1001.19
2023-05-22T11:13:23.609Z,1001.23
2023-05-22T11:14:23.595Z,1001.20
2023-05-22T11:15:23.625Z,1001.18
2023-05-22T11:16:23.665Z,1001.15
2023-05-22T11:17:23.565Z,1001.11
2023-05-22T11:18:23.554Z,1001.16
2023-05-22T11:19:24.238Z,1001.17
2023-05-22T11:20:23.597Z,1001.20
2023-05-22T11:21:23.512Z,1001.14
2023-05-22T11:22:23.489Z,1001.13
2023-05-22T11:23:23.474Z,1001.15
2023-05-22T11:24:23.458Z,1001.17
2023-05-22T11:25:23.462Z,1001.11
2023-05-22T11:26:24.791Z,1001.04
2023-05-22T11:27:23.411Z,1001.02
2023-05-22T11:28:23.415Z,1001.07
2023-05-22T11:29:23.451Z,1001.09
2023-05-22T11:30:23.413Z,1001.04
2023-05-22T11:31:23.626Z,1001.07
2023-05-22T11:32:23.388Z,1001.02
2023-05-22T11:33:23.425Z,1001.05
2023-05-22T11:34:23.343Z,1001.07
2023-05-22T11:35:23.326Z,1001.08
2023-05-22T11:36:23.350Z,1001.03
2023-05-22T11:37:23.332Z,1000.99
2023-05-22T11:38:23.288Z,1001.00
2023-05-22T11:39:23.309Z,1001.07
2023-05-22T11:40:23.277Z,1001.03
2023-05-22T11:41:23.287Z,1001.05
2023-05-22T11:42:23.243Z,1001.08
2023-05-22T11:43:23.238Z,1001.08
2023-05-22T11:44:23.242Z,1001.00
2023-05-22T11:45:23.219Z,1000.95
2023-05-22T11:46:23.289Z,1000.97
2023-05-22T11:47:23.202Z,1000.99
2023-05-22T11:48:23.179Z,1000.92
2023-05-22T11:49:23.150Z,1000.97
2023-05-22T11:50:40.373Z,1000.92
2023-05-22T11:51:24.124Z,1000.92
2023-05-22T11:52:23.120Z,1000.89
2023-05-22T11:53:23.103Z,1000.89
2023-05-22T11:54:23.080Z,1000.95
2023-05-22T11:55:23.110Z,1000.94
2023-05-22T11:56:23.117Z,1000.88
2023-05-22T11:57:23.060Z,1000.86
2023-05-22T11:58:23.032Z,1000.88
2023-05-22T11:59:23.018Z,1000.86
2023-05-22T12:00:23.126Z,1000.79
2023-05-22T12:01:23.023Z,1000.83
2023-05-22T12:02:22.993Z,1000.74
2023-05-22T12:03:25.220Z,1000.82
2023-05-22T12:04:22.993Z,1000.80
2023-05-22T12:05:22.944Z,1000.78
2023-05-22T12:06:23.003Z,1000.83